Time;durP1;ratioP1;P1;durP2;ratioP2;P2;SDS_P1;SDS_P2;PMS_P1;PMS_P2;Temp;Humidity;BMP_temperature;BMP_pressure;BME280_temperature;BME280_humidity;BME280_pressure;Samples;Min_cycle;Max_cycle;Signal;HPM_P1;HPM_P2
2021/11/24 00:01:09;;;;;;;315.52;79.20;;;9.00;99.90;;;;;;5052322;28;20017;-87
2021/11/24 00:03:35;;;;;;;251.55;73.72;;;9.00;99.90;;;;;;5052540;28;20028;-88
2021/11/24 00:06:01;;;;;;;309.40;82.35;;;8.90;99.90;;;;;;5051923;28;20018;-88
2021/11/24 00:08:27;;;;;;;277.80;75.93;;;8.80;99.90;;;;;;5052227;28;20469;-87
2021/11/24 00:10:53;;;;;;;225.45;68.00;;;8.90;99.90;;;;;;5051354;28;20021;-88
2021/11/24 00:13:18;;;;;;;263.00;73.35;;;8.90;99.90;;;;;;5052007;28;20025;-87
2021/11/24 00:15:44;;;;;;;233.50;69.10;;;8.90;99.90;;;;;;5052367;28;20025;-88
2021/11/24 00:18:10;;;;;;;289.52;76.93;;;8.80;99.90;;;;;;5033494;28;20018;-88
2021/11/24 00:20:35;;;;;;;272.15;73.68;;;8.90;99.90;;;;;;5047794;28;20028;-89
2021/11/24 00:23:01;;;;;;;337.05;83.65;;;8.90;99.90;;;;;;5051276;28;20025;-87
2021/11/24 00:25:26;;;;;;;291.08;79.82;;;8.90;99.90;;;;;;5049991;28;20424;-86
2021/11/24 00:27:52;;;;;;;314.60;81.60;;;8.90;99.90;;;;;;5041878;28;20037;-86
2021/11/24 00:30:18;;;;;;;289.45;75.65;;;8.80;99.90;;;;;;5046569;28;20055;-87
2021/11/24 00:32:44;;;;;;;294.83;77.75;;;8.80;99.90;;;;;;5042054;28;20508;-87
2021/11/24 00:35:10;;;;;;;364.00;86.20;;;8.90;99.90;;;;;;5052099;28;20032;-87
2021/11/24 00:37:35;;;;;;;451.60;89.00;;;8.80;99.90;;;;;;5049894;28;20029;-86
2021/11/24 00:40:06;;;;;;;339.80;86.53;;;8.80;99.90;;;;;;5050932;28;20029;-87
2021/11/24 00:42:32;;;;;;;340.08;83.13;;;8.90;99.90;;;;;;5052339;28;20113;-87
2021/11/24 00:44:58;;;;;;;303.77;78.47;;;8.90;99.90;;;;;;5049456;28;20018;-86
2021/11/24 00:47:24;;;;;;;245.57;72.22;;;8.90;99.90;;;;;;5039451;28;20062;-86
2021/11/24 00:49:51;;;;;;;372.35;88.90;;;9.00;99.90;;;;;;5044725;28;20028;-86
2021/11/24 00:52:17;;;;;;;363.85;90.65;;;9.00;99.90;;;;;;5043123;28;20083;-87
2021/11/24 00:54:43;;;;;;;278.92;81.10;;;9.00;99.90;;;;;;5042158;28;20030;-86
2021/11/24 00:57:09;;;;;;;446.48;97.47;;;8.90;99.90;;;;;;5035124;28;20071;-86
2021/11/24 00:59:35;;;;;;;377.48;84.95;;;8.90;99.90;;;;;;5052120;28;20120;-87
2021/11/24 01:02:01;;;;;;;551.72;107.97;;;9.00;99.90;;;;;;5051834;28;20052;-85
2021/11/24 01:04:28;;;;;;;391.25;91.05;;;9.00;99.90;;;;;;5050752;28;20025;-86
2021/11/24 01:06:55;;;;;;;371.23;90.88;;;9.00;99.90;;;;;;5051453;28;20393;-86
2021/11/24 01:09:21;;;;;;;324.85;85.15;;;9.00;99.90;;;;;;5051849;28;20029;-87
2021/11/24 01:11:49;;;;;;;335.95;83.97;;;9.00;99.90;;;;;;5051752;28;20052;-87
2021/11/24 01:14:15;;;;;;;352.48;91.72;;;9.00;99.90;;;;;;5051778;28;20013;-86
2021/11/24 01:16:44;;;;;;;390.52;93.82;;;8.90;99.90;;;;;;5051896;28;20028;-87
2021/11/24 01:19:11;;;;;;;353.58;85.28;;;9.00;99.90;;;;;;5054449;28;20025;-88
2021/11/24 01:21:40;;;;;;;311.50;88.57;;;9.00;99.90;;;;;;5056201;28;20174;-88
2021/11/24 01:24:06;;;;;;;310.05;84.50;;;9.00;99.90;;;;;;5056222;28;20057;-87
2021/11/24 01:26:35;;;;;;;355.85;92.97;;;9.00;99.90;;;;;;5055146;28;20109;-86
2021/11/24 01:29:02;;;;;;;283.88;77.05;;;8.90;99.90;;;;;;5055684;28;20505;-86
2021/11/24 01:31:28;;;;;;;375.50;89.68;;;8.90;99.90;;;;;;5055515;28;20029;-87
2021/11/24 01:33:54;;;;;;;276.15;79.93;;;9.00;99.90;;;;;;5055591;28;20025;-88
2021/11/24 01:36:22;;;;;;;374.17;92.00;;;9.00;99.90;;;;;;5056540;28;20016;-89
2021/11/24 01:38:49;;;;;;;291.08;77.30;;;9.00;99.90;;;;;;5055829;28;20060;-89
2021/11/24 01:41:16;;;;;;;811.88;126.07;;;9.00;99.90;;;;;;5056146;28;20397;-89
2021/11/24 01:43:42;;;;;;;495.15;95.82;;;9.00;99.90;;;;;;5055821;28;20021;-88
2021/11/24 01:46:08;;;;;;;325.75;86.30;;;8.90;99.90;;;;;;5056100;28;20067;-88
2021/11/24 01:48:36;;;;;;;230.70;72.78;;;8.90;99.90;;;;;;5055570;28;20094;-89
2021/11/24 01:51:02;;;;;;;470.52;100.90;;;8.90;99.90;;;;;;5055760;28;20025;-89
2021/11/24 01:53:30;;;;;;;916.38;132.80;;;8.80;99.90;;;;;;5055771;28;20040;-87
2021/11/24 01:55:58;;;;;;;340.23;87.82;;;8.80;99.90;;;;;;5055640;28;20032;-88
2021/11/24 01:58:25;;;;;;;558.35;97.88;;;8.90;99.90;;;;;;5039237;28;20026;-89
2021/11/24 02:00:53;;;;;;;1157.63;149.23;;;8.90;99.90;;;;;;5035860;28;20017;-89
2021/11/24 02:03:20;;;;;;;432.63;87.20;;;8.90;99.90;;;;;;5035541;28;20091;-88
2021/11/24 02:05:46;;;;;;;292.90;75.82;;;9.00;99.90;;;;;;5035967;28;20064;-89
2021/11/24 02:08:13;;;;;;;402.30;89.47;;;8.90;99.90;;;;;;5037452;28;20064;-89
2021/11/24 02:10:40;;;;;;;335.33;80.88;;;8.90;99.90;;;;;;5042313;28;20040;-87
2021/11/24 02:13:06;;;;;;;344.77;85.95;;;8.90;99.90;;;;;;5036991;28;20112;-88
2021/11/24 02:15:32;;;;;;;441.25;86.10;;;9.00;99.90;;;;;;5035300;28;20156;-89
2021/11/24 02:18:04;;;;;;;480.48;84.05;;;8.90;99.90;;;;;;5035185;28;20029;-89
2021/11/24 02:20:44;;;;;;;371.70;80.53;;;9.00;99.90;;;;;;5054032;28;20025;-89
2021/11/24 02:23:12;;;;;;;490.67;100.05;;;8.90;99.90;;;;;;5055101;28;20060;-89
2021/11/24 02:25:40;;;;;;;372.08;87.32;;;9.00;99.90;;;;;;5054885;28;20025;-88
2021/11/24 02:28:07;;;;;;;370.05;85.25;;;9.00;99.90;;;;;;5055045;28;20033;-88
2021/11/24 02:30:34;;;;;;;397.30;91.15;;;9.00;99.90;;;;;;5034779;28;20516;-90
2021/11/24 02:33:02;;;;;;;345.30;83.07;;;9.00;99.90;;;;;;5035223;28;20025;-87
2021/11/24 02:35:29;;;;;;;346.40;81.68;;;9.10;99.90;;;;;;5044804;28;20443;-87
2021/11/24 02:37:56;;;;;;;321.35;76.60;;;9.00;99.90;;;;;;5054795;28;20113;-87
2021/11/24 02:40:31;;;;;;;458.52;96.00;;;9.00;99.90;;;;;;5054603;28;20021;-88
2021/11/24 02:42:56;;;;;;;344.30;82.05;;;9.10;99.90;;;;;;5053975;28;20013;-88
2021/11/24 02:45:24;;;;;;;421.38;88.20;;;9.00;99.90;;;;;;5054329;28;20104;-87
2021/11/24 02:47:51;;;;;;;353.05;86.35;;;9.00;99.90;;;;;;5054024;28;20520;-88
2021/11/24 02:50:17;;;;;;;470.27;86.57;;;9.00;99.90;;;;;;5054606;28;20013;-88
2021/11/24 02:52:45;;;;;;;571.20;108.38;;;9.00;99.90;;;;;;5054425;28;20033;-89
2021/11/24 02:55:13;;;;;;;319.92;79.93;;;8.90;99.90;;;;;;5053461;28;20052;-88
2021/11/24 02:57:43;;;;;;;492.45;97.20;;;8.90;99.90;;;;;;5054345;28;20025;-86
2021/11/24 03:00:14;;;;;;;316.75;85.10;;;8.90;99.90;;;;;;5054370;28;20021;-88
2021/11/24 03:02:40;;;;;;;373.77;87.30;;;8.90;99.90;;;;;;5053535;28;20021;-87
2021/11/24 03:05:06;;;;;;;840.50;128.88;;;9.00;99.90;;;;;;5053876;28;20370;-87
2021/11/24 03:07:34;;;;;;;569.88;109.18;;;9.00;99.90;;;;;;5054006;28;20033;-88
2021/11/24 03:10:00;;;;;;;468.98;87.25;;;8.90;99.90;;;;;;5054123;28;20058;-86
2021/11/24 03:12:27;;;;;;;438.55;92.28;;;8.80;99.90;;;;;;5051806;28;20025;-89
2021/11/24 03:14:54;;;;;;;454.55;96.18;;;8.80;99.90;;;;;;5053675;28;20032;-90
2021/11/24 03:17:20;;;;;;;352.63;88.68;;;8.90;99.90;;;;;;5041598;28;20021;-86
2021/11/24 03:19:48;;;;;;;319.58;85.07;;;8.90;99.90;;;;;;5047135;28;20032;-87
2021/11/24 03:22:22;;;;;;;282.48;79.55;;;8.90;99.90;;;;;;5034542;28;20091;-86
2021/11/24 03:24:55;;;;;;;387.83;88.70;;;8.70;99.90;;;;;;5034156;28;20056;-87
2021/11/24 03:27:30;;;;;;;392.50;90.03;;;8.70;99.90;;;;;;5033862;28;20039;-89
2021/11/24 03:29:58;;;;;;;352.25;89.25;;;8.70;99.90;;;;;;5033779;28;20018;-88
2021/11/24 03:32:26;;;;;;;264.80;78.20;;;8.80;99.90;;;;;;5033474;28;20501;-87
2021/11/24 03:34:53;;;;;;;323.80;81.82;;;8.80;99.90;;;;;;5037965;28;20099;-87
2021/11/24 03:37:21;;;;;;;536.33;103.82;;;8.70;99.90;;;;;;5033451;28;20036;-86
2021/11/24 03:39:47;;;;;;;313.95;84.80;;;8.70;99.90;;;;;;5034883;28;20022;-87
2021/11/24 03:42:15;;;;;;;296.33;83.95;;;8.80;99.90;;;;;;5053004;28;20048;-87
2021/11/24 03:44:42;;;;;;;296.92;82.78;;;8.80;99.90;;;;;;5052638;28;20535;-86
2021/11/24 03:47:08;;;;;;;325.35;88.85;;;8.90;99.90;;;;;;5053177;28;20441;-86
2021/11/24 03:49:36;;;;;;;1102.10;153.43;;;8.90;99.90;;;;;;5053105;28;20469;-86
2021/11/24 03:52:04;;;;;;;291.00;79.53;;;8.90;99.90;;;;;;5053194;28;20025;-86
2021/11/24 03:54:31;;;;;;;480.10;100.50;;;8.90;99.90;;;;;;5052587;28;20054;-86
2021/11/24 03:56:57;;;;;;;244.88;77.10;;;8.80;99.90;;;;;;5052763;28;20054;-86
2021/11/24 03:59:23;;;;;;;293.52;86.07;;;8.90;99.90;;;;;;5052519;28;20111;-86
2021/11/24 04:01:49;;;;;;;955.67;143.70;;;8.80;99.90;;;;;;5053133;28;20028;-86
2021/11/24 04:04:17;;;;;;;259.60;73.55;;;8.80;99.90;;;;;;5052338;28;20025;-86
2021/11/24 04:06:44;;;;;;;290.15;80.47;;;8.80;99.90;;;;;;5052366;28;20025;-86
2021/11/24 04:09:10;;;;;;;506.60;97.53;;;8.80;99.90;;;;;;5052598;28;20127;-86
2021/11/24 04:11:35;;;;;;;272.60;77.90;;;8.80;99.90;;;;;;5052582;28;20123;-85
2021/11/24 04:14:01;;;;;;;650.95;113.60;;;8.90;99.90;;;;;;5052125;28;20107;-86
2021/11/24 04:16:28;;;;;;;765.30;121.20;;;8.80;99.90;;;;;;5053933;28;20033;-87
2021/11/24 04:18:55;;;;;;;396.17;90.43;;;8.80;99.90;;;;;;5052272;28;20086;-86
2021/11/24 04:21:21;;;;;;;237.38;73.32;;;8.90;99.90;;;;;;5051952;28;20031;-87
2021/11/24 04:23:47;;;;;;;535.58;97.60;;;8.90;99.90;;;;;;5052418;28;20025;-85
2021/11/24 04:26:14;;;;;;;302.23;80.18;;;8.90;99.90;;;;;;5052500;28;20036;-84
2021/11/24 04:28:40;;;;;;;356.77;85.20;;;8.90;99.90;;;;;;5052204;28;20063;-86
2021/11/24 04:31:09;;;;;;;251.25;77.90;;;8.90;99.90;;;;;;5049916;28;20048;-86
2021/11/24 04:33:36;;;;;;;860.63;137.57;;;8.90;99.90;;;;;;5051897;28;20025;-85
2021/11/24 04:36:05;;;;;;;365.40;92.72;;;8.90;99.90;;;;;;5055204;28;20492;-86
2021/11/24 04:38:31;;;;;;;225.77;69.93;;;8.80;99.90;;;;;;5058529;28;20100;-86
2021/11/24 04:40:57;;;;;;;595.00;108.43;;;8.90;99.90;;;;;;5048000;28;20032;-86
2021/11/24 04:43:32;;;;;;;577.17;104.35;;;8.90;99.90;;;;;;5039328;28;20022;-87
2021/11/24 04:46:01;;;;;;;258.83;79.72;;;8.90;99.90;;;;;;5052037;28;20462;-87
2021/11/24 04:48:28;;;;;;;239.18;73.07;;;8.90;99.90;;;;;;5051698;28;20068;-86
2021/11/24 04:50:54;;;;;;;254.82;77.05;;;8.90;99.90;;;;;;5053377;28;20029;-86
2021/11/24 04:53:21;;;;;;;351.05;93.35;;;8.90;99.90;;;;;;5056039;28;20531;-86
2021/11/24 04:55:48;;;;;;;265.25;81.60;;;8.90;99.90;;;;;;5059062;28;20048;-87
2021/11/24 04:58:15;;;;;;;245.82;77.20;;;8.90;99.90;;;;;;5058576;28;20055;-88
2021/11/24 05:00:41;;;;;;;272.13;77.78;;;8.90;99.90;;;;;;5058576;28;20017;-87
2021/11/24 05:03:08;;;;;;;220.57;71.18;;;8.90;99.90;;;;;;5056855;28;20040;-87
2021/11/24 05:05:35;;;;;;;315.63;83.38;;;8.90;99.90;;;;;;5044602;28;20782;-89
2021/11/24 05:08:02;;;;;;;225.10;70.85;;;9.00;99.90;;;;;;5060126;28;20037;-87
2021/11/24 05:10:29;;;;;;;277.80;80.50;;;9.00;99.90;;;;;;5058760;28;20041;-88
2021/11/24 05:12:55;;;;;;;242.40;75.53;;;9.00;99.90;;;;;;5058298;28;20029;-87
2021/11/24 05:15:31;;;;;;;226.80;72.00;;;9.00;99.90;;;;;;5058671;28;20017;-88
2021/11/24 05:18:03;;;;;;;293.35;79.70;;;9.00;99.90;;;;;;5058830;28;20028;-87
2021/11/24 05:20:31;;;;;;;352.65;84.53;;;9.00;99.90;;;;;;5058752;28;20036;-86
2021/11/24 05:22:59;;;;;;;264.85;80.68;;;9.00;99.90;;;;;;5042203;28;20022;-87
2021/11/24 05:25:28;;;;;;;275.15;76.72;;;9.10;99.90;;;;;;5038885;28;20099;-86
2021/11/24 05:27:55;;;;;;;231.63;72.95;;;9.00;99.90;;;;;;5038592;28;20493;-87
2021/11/24 05:30:21;;;;;;;290.75;75.93;;;9.00;99.90;;;;;;5038827;28;20057;-88
2021/11/24 05:32:49;;;;;;;239.43;74.45;;;9.00;99.90;;;;;;5038869;28;20026;-88
2021/11/24 05:35:21;;;;;;;240.63;72.60;;;9.00;99.90;;;;;;5038973;28;20040;-87
2021/11/24 05:37:48;;;;;;;592.20;103.07;;;9.00;99.90;;;;;;5039399;28;20018;-85
2021/11/24 05:40:17;;;;;;;268.60;77.50;;;9.00;99.90;;;;;;5038549;28;20632;-87
2021/11/24 05:42:48;;;;;;;333.63;81.50;;;9.00;99.90;;;;;;5050224;28;20438;-86
2021/11/24 05:45:26;;;;;;;243.13;79.63;;;9.00;99.90;;;;;;5058529;28;20116;-87
2021/11/24 05:50:20;;;;;;;313.77;83.82;;;9.00;99.90;;;;;;5059885;28;20033;-88
2021/11/24 05:52:46;;;;;;;270.35;73.85;;;9.00;99.90;;;;;;5058601;28;20029;-86
2021/11/24 05:55:12;;;;;;;501.48;97.45;;;9.00;99.90;;;;;;5057731;28;20013;-87
2021/11/24 05:57:39;;;;;;;296.05;82.47;;;9.00;99.90;;;;;;5058674;28;20032;-87
2021/11/24 06:00:05;;;;;;;265.13;75.10;;;8.90;99.90;;;;;;5058510;28;20028;-86
2021/11/24 06:02:33;;;;;;;228.80;76.40;;;8.90;99.90;;;;;;5058213;28;20090;-87
2021/11/24 06:05:01;;;;;;;245.45;80.35;;;9.00;99.90;;;;;;5054865;28;20492;-86
2021/11/24 06:07:27;;;;;;;392.50;88.60;;;9.00;99.90;;;;;;5055064;28;20041;-85
2021/11/24 06:09:53;;;;;;;263.23;76.63;;;9.00;99.90;;;;;;5054902;28;20021;-86
2021/11/24 06:12:20;;;;;;;214.43;70.57;;;9.00;99.90;;;;;;5055363;28;20111;-86
2021/11/24 06:14:47;;;;;;;199.45;66.95;;;8.90;99.90;;;;;;5055168;28;20025;-86
2021/11/24 06:17:15;;;;;;;259.50;77.05;;;9.00;99.90;;;;;;5055034;28;20392;-86
2021/11/24 06:19:41;;;;;;;231.68;72.38;;;9.00;99.90;;;;;;5055041;28;20032;-86
2021/11/24 06:22:07;;;;;;;257.95;75.20;;;9.10;99.90;;;;;;5055376;28;20036;-88
2021/11/24 06:24:36;;;;;;;435.75;95.50;;;9.00;99.90;;;;;;5054800;28;20021;-87
2021/11/24 06:27:02;;;;;;;384.83;92.22;;;9.00;99.90;;;;;;5055096;28;20029;-87
2021/11/24 06:29:29;;;;;;;182.32;65.38;;;9.00;99.90;;;;;;5040616;28;20022;-88
2021/11/24 06:31:55;;;;;;;167.23;66.00;;;9.00;99.90;;;;;;5048096;28;20040;-86
2021/11/24 06:34:24;;;;;;;207.93;71.68;;;9.00;99.90;;;;;;5054183;28;20033;-87
2021/11/24 06:36:53;;;;;;;213.85;69.93;;;9.00;99.90;;;;;;5054266;28;20043;-87
2021/11/24 06:39:26;;;;;;;181.55;64.55;;;8.90;99.90;;;;;;5054462;28;20017;-87
2021/11/24 06:41:54;;;;;;;171.80;62.53;;;8.90;99.90;;;;;;5035073;28;20116;-86
2021/11/24 06:44:22;;;;;;;190.05;65.47;;;8.90;99.90;;;;;;5034712;28;20032;-87
2021/11/24 06:46:50;;;;;;;141.25;57.78;;;8.90;99.90;;;;;;5034430;28;20033;-87
2021/11/24 06:49:18;;;;;;;156.80;60.88;;;9.00;99.90;;;;;;5034678;28;20024;-87
2021/11/24 06:51:45;;;;;;;210.98;69.97;;;9.00;99.90;;;;;;5034577;28;20127;-87
2021/11/24 06:54:12;;;;;;;147.75;58.75;;;9.00;99.90;;;;;;5034472;28;20017;-87
2021/11/24 06:56:39;;;;;;;140.15;57.58;;;9.10;99.90;;;;;;5034526;28;20088;-87
2021/11/24 06:59:05;;;;;;;152.02;60.60;;;9.10;99.90;;;;;;5043916;28;20060;-87
2021/11/24 07:01:31;;;;;;;193.63;62.92;;;9.10;99.90;;;;;;5045160;28;20470;-87
2021/11/24 07:03:58;;;;;;;189.68;66.18;;;9.10;99.90;;;;;;5037525;28;20234;-86
2021/11/24 07:06:23;;;;;;;276.10;78.57;;;9.10;99.90;;;;;;5037555;28;20024;-86
2021/11/24 07:08:49;;;;;;;250.55;77.32;;;9.10;99.90;;;;;;5033463;28;20033;-88
2021/11/24 07:11:15;;;;;;;207.38;70.80;;;9.00;99.90;;;;;;5035058;28;20485;-87
2021/11/24 07:13:40;;;;;;;209.90;69.88;;;9.00;99.90;;;;;;5054220;28;20094;-87
2021/11/24 07:16:08;;;;;;;253.40;79.03;;;9.00;99.90;;;;;;5054114;28;20025;-88
2021/11/24 07:18:34;;;;;;;608.38;111.82;;;9.10;99.90;;;;;;5045897;28;20020;-87
2021/11/24 07:21:00;;;;;;;195.25;68.38;;;9.00;99.90;;;;;;5042538;28;20482;-80
2021/11/24 07:23:25;;;;;;;211.25;67.30;;;9.00;99.90;;;;;;5047053;28;20078;-82
2021/11/24 07:25:51;;;;;;;211.73;71.47;;;8.90;99.90;;;;;;5051299;28;20032;-79
2021/11/24 07:28:17;;;;;;;216.32;72.32;;;9.00;99.90;;;;;;5041109;28;20485;-80
2021/11/24 07:30:42;;;;;;;235.55;73.05;;;9.00;99.90;;;;;;5047178;28;20029;-80
2021/11/24 07:33:08;;;;;;;242.43;76.47;;;9.00;99.90;;;;;;5040360;28;20359;-80
2021/11/24 07:35:34;;;;;;;237.32;74.55;;;9.00;99.90;;;;;;5044622;28;20205;-79
2021/11/24 07:38:00;;;;;;;201.55;67.70;;;9.10;99.90;;;;;;5041786;28;20485;-79
2021/11/24 07:40:26;;;;;;;195.38;68.82;;;9.10;99.90;;;;;;5042440;28;20048;-80
2021/11/24 07:42:52;;;;;;;226.32;72.28;;;9.10;99.90;;;;;;5042903;28;20018;-80
2021/11/24 07:45:18;;;;;;;253.30;77.38;;;9.20;99.90;;;;;;5040478;28;20036;-79
2021/11/24 07:47:44;;;;;;;232.02;76.53;;;9.20;99.90;;;;;;5040589;28;20045;-79
2021/11/24 07:50:10;;;;;;;192.32;69.35;;;9.20;99.90;;;;;;5043342;28;20386;-81
2021/11/24 07:52:36;;;;;;;223.05;69.28;;;9.20;99.90;;;;;;5045867;28;20124;-80
2021/11/24 07:55:03;;;;;;;304.65;80.43;;;9.10;99.90;;;;;;5041690;28;20029;-79
2021/11/24 07:57:28;;;;;;;250.32;74.45;;;9.20;99.90;;;;;;5042941;28;20034;-80
2021/11/24 07:59:54;;;;;;;218.70;69.30;;;9.10;99.90;;;;;;5043362;28;20075;-80
2021/11/24 08:02:20;;;;;;;175.02;65.38;;;9.20;99.90;;;;;;5042488;28;20029;-79
2021/11/24 08:04:46;;;;;;;311.67;83.43;;;9.20;99.90;;;;;;5047923;28;20489;-80
2021/11/24 08:07:11;;;;;;;193.73;63.47;;;9.10;99.90;;;;;;5042958;28;20116;-80
2021/11/24 08:09:37;;;;;;;265.00;76.13;;;9.10;99.90;;;;;;5049125;28;20056;-78
2021/11/24 08:12:03;;;;;;;224.68;70.05;;;9.10;99.90;;;;;;5039796;28;20036;-79
2021/11/24 08:14:29;;;;;;;211.15;68.35;;;9.10;99.90;;;;;;5042800;28;20043;-79
2021/11/24 08:16:55;;;;;;;406.85;86.43;;;9.10;99.90;;;;;;5036823;28;20041;-77
2021/11/24 08:19:21;;;;;;;295.10;81.45;;;9.10;99.90;;;;;;5044579;28;20480;-78
2021/11/24 08:21:48;;;;;;;792.95;124.93;;;9.20;99.90;;;;;;5040045;28;20424;-78
2021/11/24 08:24:14;;;;;;;245.85;73.15;;;9.20;99.90;;;;;;5041880;28;20022;-77
2021/11/24 08:26:40;;;;;;;189.30;65.32;;;9.20;99.90;;;;;;5039614;28;20047;-77
2021/11/24 08:29:07;;;;;;;196.63;69.43;;;9.20;99.90;;;;;;5039202;28;20490;-77
2021/11/24 08:31:36;;;;;;;250.50;71.22;;;9.20;99.90;;;;;;5040265;28;20054;-78
2021/11/24 08:34:03;;;;;;;240.30;77.30;;;9.20;99.90;;;;;;5039745;28;20074;-77
2021/11/24 08:36:29;;;;;;;197.13;67.65;;;9.20;99.90;;;;;;5028139;28;20025;-77
2021/11/24 08:38:54;;;;;;;230.70;73.10;;;9.20;99.90;;;;;;5043665;28;20033;-77
2021/11/24 08:41:20;;;;;;;222.75;74.22;;;9.10;99.90;;;;;;5044458;28;20032;-78
2021/11/24 08:43:46;;;;;;;274.60;75.97;;;9.10;99.90;;;;;;5044295;28;20041;-78
2021/11/24 08:46:11;;;;;;;203.35;69.82;;;9.10;99.90;;;;;;5047002;28;20025;-77
2021/11/24 08:48:37;;;;;;;195.65;69.75;;;9.10;99.90;;;;;;5040610;28;20080;-78
2021/11/24 08:51:04;;;;;;;367.48;89.72;;;9.10;99.90;;;;;;5040390;28;20762;-78
2021/11/24 08:53:30;;;;;;;235.25;76.45;;;9.20;99.90;;;;;;5034618;28;20064;-78
2021/11/24 08:55:55;;;;;;;235.85;75.20;;;9.20;99.90;;;;;;5041643;28;20044;-78
2021/11/24 08:58:21;;;;;;;278.52;81.45;;;9.10;99.90;;;;;;5042859;28;20029;-78
2021/11/24 09:00:47;;;;;;;365.98;95.15;;;9.10;99.90;;;;;;5047107;28;20021;-78
2021/11/24 09:03:12;;;;;;;284.63;83.90;;;9.10;99.90;;;;;;5049719;28;20087;-78
2021/11/24 09:05:39;;;;;;;291.50;84.03;;;9.10;99.90;;;;;;5050377;28;20392;-78
2021/11/24 09:08:05;;;;;;;258.85;78.30;;;9.10;99.90;;;;;;5044616;28;20049;-78
2021/11/24 09:10:33;;;;;;;296.38;83.32;;;9.10;99.90;;;;;;5041047;28;20025;-78
2021/11/24 09:12:59;;;;;;;234.35;74.07;;;9.20;99.90;;;;;;5044067;28;20067;-77
2021/11/24 09:15:26;;;;;;;212.35;69.75;;;9.10;99.90;;;;;;5049630;28;20025;-77
2021/11/24 09:17:52;;;;;;;202.23;65.43;;;9.10;99.90;;;;;;5046213;28;20022;-77
2021/11/24 09:20:18;;;;;;;343.15;88.05;;;9.20;99.90;;;;;;5044222;28;20075;-77
2021/11/24 09:22:46;;;;;;;236.32;70.32;;;9.20;99.90;;;;;;5039756;28;20026;-77
2021/11/24 09:25:16;;;;;;;224.27;66.97;;;9.10;99.90;;;;;;5048878;28;20013;-77
2021/11/24 09:27:47;;;;;;;247.50;72.93;;;9.10;99.90;;;;;;5048419;28;20071;-78
2021/11/24 09:30:15;;;;;;;209.68;67.30;;;9.10;99.90;;;;;;5041638;28;20021;-78
2021/11/24 09:32:42;;;;;;;223.95;69.28;;;9.10;99.90;;;;;;5045860;28;20057;-79
2021/11/24 09:35:09;;;;;;;240.82;71.70;;;9.10;99.90;;;;;;5048643;28;20021;-79
2021/11/24 09:37:34;;;;;;;253.95;75.20;;;9.10;99.90;;;;;;5043940;28;20496;-79
2021/11/24 09:40:00;;;;;;;243.43;72.70;;;9.00;99.90;;;;;;5050284;28;20021;-79
2021/11/24 09:42:29;;;;;;;243.23;73.18;;;9.10;99.90;;;;;;5050226;28;20029;-79
2021/11/24 09:44:56;;;;;;;227.25;71.93;;;9.20;99.90;;;;;;5043974;28;20039;-79
2021/11/24 09:47:24;;;;;;;211.13;70.28;;;9.30;99.90;;;;;;5047776;28;20032;-79
2021/11/24 09:49:54;;;;;;;202.25;67.50;;;9.40;99.90;;;;;;5041627;28;20017;-78
2021/11/24 09:52:20;;;;;;;198.10;66.57;;;9.40;99.90;;;;;;5043019;28;20052;-79
2021/11/24 09:54:50;;;;;;;202.35;67.85;;;9.50;99.90;;;;;;5048447;28;20021;-79
2021/11/24 09:57:23;;;;;;;191.75;64.75;;;9.50;99.90;;;;;;5052080;28;20418;-79
2021/11/24 09:59:49;;;;;;;176.50;64.05;;;9.60;99.90;;;;;;5043679;28;20025;-78
2021/11/24 10:02:16;;;;;;;163.18;61.20;;;9.50;99.90;;;;;;5046304;28;20082;-79
2021/11/24 10:04:44;;;;;;;155.13;60.03;;;9.50;99.90;;;;;;5049680;28;20028;-79
2021/11/24 10:07:17;;;;;;;151.07;60.45;;;9.50;99.90;;;;;;5052205;28;20870;-80
2021/11/24 10:09:43;;;;;;;;;;;9.40;99.90;;;;;;5049949;28;20025;-80
2021/11/24 10:12:09;;;;;;;135.70;54.47;;;9.40;99.90;;;;;;5041879;28;19909;-80
2021/11/24 10:14:37;;;;;;;143.98;57.35;;;9.50;99.90;;;;;;5042587;28;20021;-80
2021/11/24 10:17:21;;;;;;;142.05;53.22;;;9.40;99.90;;;;;;5044864;28;20485;-80
2021/11/24 10:20:09;;;;;;;138.25;53.92;;;9.50;99.90;;;;;;5048718;28;20031;-80
2021/11/24 10:22:42;;;;;;;138.70;58.20;;;9.50;99.90;;;;;;5041785;28;20360;-80
2021/11/24 10:25:13;;;;;;;135.30;55.72;;;9.50;99.90;;;;;;5047221;28;20469;-80
2021/11/24 10:27:48;;;;;;;147.05;57.20;;;9.60;99.90;;;;;;5045043;28;20045;-80
2021/11/24 10:30:26;;;;;;;158.07;60.40;;;9.50;99.90;;;;;;5044736;28;20028;-79
2021/11/24 10:32:52;;;;;;;144.38;58.42;;;9.60;99.90;;;;;;5045826;28;20113;-80
2021/11/24 10:35:25;;;;;;;141.00;56.22;;;9.50;99.90;;;;;;5049250;28;20040;-80
2021/11/24 10:38:12;;;;;;;136.10;55.20;;;9.60;99.90;;;;;;5042801;28;20035;-81
2021/11/24 10:40:43;;;;;;;139.63;54.17;;;9.50;99.90;;;;;;5049879;28;20013;-80
2021/11/24 10:43:14;;;;;;;144.45;55.38;;;9.60;99.90;;;;;;5046671;28;20035;-79
2021/11/24 10:45:57;;;;;;;148.52;54.42;;;9.70;99.90;;;;;;5045035;28;20025;-81
2021/11/24 10:48:27;;;;;;;139.02;52.30;;;9.60;99.90;;;;;;5049624;28;20044;-81
2021/11/24 10:50:55;;;;;;;135.38;50.90;;;9.70;99.90;;;;;;5043626;28;20024;-80
2021/11/24 10:53:21;;;;;;;144.32;52.60;;;9.60;99.90;;;;;;5050703;28;20017;-79
2021/11/24 10:55:47;;;;;;;135.00;50.78;;;9.60;99.90;;;;;;5041057;28;20025;-80
2021/11/24 10:58:24;;;;;;;130.98;48.65;;;9.70;99.90;;;;;;5045012;28;20082;-78
2021/11/24 11:00:56;;;;;;;118.68;43.60;;;9.70;99.90;;;;;;5043163;28;22146;-78
2021/11/24 11:03:33;;;;;;;120.03;45.13;;;9.70;99.90;;;;;;5045570;28;20079;-78
2021/11/24 11:05:59;;;;;;;120.45;44.22;;;9.60;99.90;;;;;;5043554;28;20025;-79
2021/11/24 11:08:25;;;;;;;124.75;44.90;;;9.60;99.90;;;;;;5042690;28;20045;-79
2021/11/24 11:10:53;;;;;;;121.60;43.95;;;9.60;99.90;;;;;;5045982;28;20116;-79
2021/11/24 11:13:22;;;;;;;118.93;43.53;;;9.70;99.90;;;;;;5046595;28;20451;-78
2021/11/24 11:15:50;;;;;;;112.40;42.45;;;9.60;99.90;;;;;;5052433;28;20025;-78
2021/11/24 11:18:16;;;;;;;114.05;45.60;;;9.60;99.90;;;;;;5043038;28;20017;-79
2021/11/24 11:20:56;;;;;;;115.88;42.63;;;9.60;99.90;;;;;;5041945;28;20083;-81
2021/11/24 11:23:43;;;;;;;126.38;44.28;;;9.70;99.90;;;;;;5042818;28;20091;-81
2021/11/24 11:26:15;;;;;;;121.10;44.50;;;9.70;99.90;;;;;;5042306;28;20470;-80
2021/11/24 11:28:55;;;;;;;118.63;44.20;;;9.70;99.90;;;;;;5041984;28;20460;-82
2021/11/24 11:31:23;;;;;;;121.43;45.38;;;9.60;99.90;;;;;;5042469;28;20051;-81
2021/11/24 11:33:50;;;;;;;126.43;46.22;;;9.60;99.90;;;;;;5045052;28;20571;-82
2021/11/24 11:36:17;;;;;;;119.75;43.88;;;9.60;99.90;;;;;;5044794;28;20021;-81
2021/11/24 11:38:51;;;;;;;130.70;48.65;;;9.60;99.90;;;;;;5041666;28;20029;-82
2021/11/24 11:41:21;;;;;;;124.20;48.25;;;9.70;99.90;;;;;;5044687;28;20051;-81
2021/11/24 11:43:52;;;;;;;128.82;48.92;;;9.50;99.90;;;;;;5045970;28;20029;-81
2021/11/24 11:46:24;;;;;;;124.63;46.78;;;9.50;99.90;;;;;;5042298;28;20029;-81
2021/11/24 11:48:51;;;;;;;132.43;50.58;;;9.50;99.90;;;;;;5044431;28;20063;-83
2021/11/24 11:51:33;;;;;;;120.63;48.55;;;9.50;99.90;;;;;;5050208;28;20024;-82
2021/11/24 11:54:00;;;;;;;126.00;47.15;;;9.50;99.90;;;;;;5043161;28;20060;-83
2021/11/24 11:56:28;;;;;;;115.70;45.80;;;9.60;99.90;;;;;;5043593;28;20029;-83
2021/11/24 11:59:08;;;;;;;111.63;43.90;;;9.60;99.90;;;;;;5044804;28;20017;-82
2021/11/24 12:01:40;;;;;;;114.20;44.65;;;9.60;99.90;;;;;;5037014;28;20451;-82
2021/11/24 12:04:19;;;;;;;119.30;46.72;;;9.60;99.90;;;;;;5043273;28;20033;-82
2021/11/24 12:06:48;;;;;;;122.95;47.10;;;9.60;99.90;;;;;;5044967;28;20131;-83
2021/11/24 12:09:29;;;;;;;125.68;49.90;;;9.70;99.90;;;;;;5042004;28;20029;-82
2021/11/24 12:12:26;;;;;;;112.75;44.22;;;9.70;99.90;;;;;;5041481;28;20120;-82
2021/11/24 12:14:58;;;;;;;120.18;46.00;;;9.70;99.90;;;;;;5047253;28;20037;-82
2021/11/24 12:20:01;;;;;;;124.70;47.38;;;9.90;99.90;;;;;;5041143;28;20037;-82
2021/11/24 12:22:54;;;;;;;116.30;45.10;;;9.90;99.90;;;;;;5045217;28;20381;-82
2021/11/24 12:27:54;;;;;;;112.75;44.75;;;9.80;99.90;;;;;;5051173;28;20390;-82
2021/11/24 12:33:31;;;;;;;119.47;45.08;;;9.90;99.90;;;;;;5041773;28;20033;-83
2021/11/24 12:36:15;;;;;;;113.05;44.15;;;10.00;99.90;;;;;;5045628;28;20545;-83
2021/11/24 12:38:47;;;;;;;102.88;41.78;;;10.00;99.90;;;;;;5043018;28;20032;-83
2021/11/24 12:41:20;;;;;;;100.65;40.85;;;10.00;99.90;;;;;;5042142;28;20045;-85